Inicio METAR Ruta Wind Satelite

Informe Meteorológico

Fecha: 2020/12/01 19:42:28 Local
2020.12.02 00:42 UTC


Estado: VIGENTE
Operación:VFR
Barranquilla / Ernestocortissoz, Colombia (SKBQ) 10-53N 074-47W 30M
Dec 01, 2020 - 07:00 PM EST / 2020.12.02 0000 UTC
Wind: Calm:0
Visibility: greater than 7 mile(s):0
Sky conditions: mostly cloudy
Temperature: 77 F (25 C)
Dew Point: 77 F (25 C)
Relative Humidity: 100%
Pressure (altimeter): 29.82 in. Hg (1009 hPa)
ob: SKBQ 020000Z 00000KT 9999 FEW015 BKN070 25/25 A2982 NOSIG
cycle: 0

SKBQ 012300Z VRB02KT 9999 SCT015 BKN070 25/24 A2979 NOSIG
SKBQ 012200Z 00000KT 9999 SCT015 BKN070 24/24 A2978 NOSIG
SKBQ 012121Z 33004KT 8000 VCSH SCT015 BKN070 23/23 A2978 RERA NOSIG RMK VCSH/NE
SKBQ 012118Z SPECI SKBQ 01218Z 33004KT 8000 VCSH SCT015 BKN070 23/23 A2978 RERA NOSIG RMK VCSH/NE
SKBQ 012100Z VRB02KT 3000 -RA BKN012 FEW020CB OVC070 22/22 A2979 RETSRA BECMG 9999 NSW RMK CB/W

2020/12/02 00:00
TAF COR SKBQ 012230Z 0200/0224 36004KT 9999 SCT015
TEMPO 0200/0202 DZ FEW008CB SCT012 SCT090 PROB40
TEMPO 0210/0212 4000 DZBR FEW010CB SCT015 SCT090
TEMPO 0219/0221 3000 TSRA FEW008CB SCT012 BKN070 TX30/0216Z TN23/0210Z